sensor_id;sensor_type;location;lat;lon;timestamp;pressure;altitude;pressure_sealevel;temperature;humidity
70304;BME280;57712;48.752;11.348;2023-07-29T00:01:36;97316.56;;;17.80;100.00
70304;BME280;57712;48.752;11.348;2023-07-29T00:04:04;97313.50;;;17.78;100.00
70304;BME280;57712;48.752;11.348;2023-07-29T00:06:31;97305.47;;;17.80;100.00
70304;BME280;57712;48.752;11.348;2023-07-29T00:08:58;97302.69;;;17.80;100.00
70304;BME280;57712;48.752;11.348;2023-07-29T00:11:24;97302.00;;;17.95;100.00
70304;BME280;57712;48.752;11.348;2023-07-29T00:13:51;97305.41;;;17.89;100.00
70304;BME280;57712;48.752;11.348;2023-07-29T00:16:19;97305.25;;;17.93;100.00
70304;BME280;57712;48.752;11.348;2023-07-29T00:18:49;97311.09;;;17.95;100.00
70304;BME280;57712;48.752;11.348;2023-07-29T00:21:16;97316.22;;;17.87;100.00
70304;BME280;57712;48.752;11.348;2023-07-29T00:23:42;97307.41;;;17.89;100.00
70304;BME280;57712;48.752;11.348;2023-07-29T00:26:09;97300.78;;;18.10;100.00
70304;BME280;57712;48.752;11.348;2023-07-29T00:28:36;97298.28;;;17.98;100.00
70304;BME280;57712;48.752;11.348;2023-07-29T00:31:02;97300.75;;;17.96;100.00
70304;BME280;57712;48.752;11.348;2023-07-29T00:33:29;97300.16;;;17.92;100.00
70304;BME280;57712;48.752;11.348;2023-07-29T00:35:56;97286.63;;;17.94;100.00
70304;BME280;57712;48.752;11.348;2023-07-29T00:38:23;97289.81;;;17.77;100.00
70304;BME280;57712;48.752;11.348;2023-07-29T00:40:49;97286.75;;;17.75;100.00
70304;BME280;57712;48.752;11.348;2023-07-29T00:43:16;97283.34;;;17.71;100.00
70304;BME280;57712;48.752;11.348;2023-07-29T00:45:43;97277.28;;;17.58;100.00
70304;BME280;57712;48.752;11.348;2023-07-29T00:48:10;97281.22;;;17.66;100.00
70304;BME280;57712;48.752;11.348;2023-07-29T00:50:37;97284.53;;;17.55;100.00
70304;BME280;57712;48.752;11.348;2023-07-29T00:53:04;97284.09;;;17.48;100.00
70304;BME280;57712;48.752;11.348;2023-07-29T00:55:31;97281.69;;;17.41;100.00
70304;BME280;57712;48.752;11.348;2023-07-29T00:57:58;97273.38;;;17.41;100.00
70304;BME280;57712;48.752;11.348;2023-07-29T01:00:25;97281.69;;;17.41;100.00
70304;BME280;57712;48.752;11.348;2023-07-29T01:02:52;97273.13;;;17.29;100.00
70304;BME280;57712;48.752;11.348;2023-07-29T01:05:21;97269.13;;;17.30;100.00
70304;BME280;57712;48.752;11.348;2023-07-29T01:08:17;97262.66;;;17.34;100.00
70304;BME280;57712;48.752;11.348;2023-07-29T01:10:58;97255.00;;;17.19;100.00
70304;BME280;57712;48.752;11.348;2023-07-29T01:13:58;97266.69;;;17.23;100.00
70304;BME280;57712;48.752;11.348;2023-07-29T01:16:41;97266.22;;;17.25;100.00
70304;BME280;57712;48.752;11.348;2023-07-29T01:19:26;97270.59;;;17.08;100.00
70304;BME280;57712;48.752;11.348;2023-07-29T01:21:59;97260.94;;;17.03;100.00
70304;BME280;57712;48.752;11.348;2023-07-29T01:24:25;97265.78;;;17.17;100.00
70304;BME280;57712;48.752;11.348;2023-07-29T01:26:52;97260.94;;;17.03;100.00
70304;BME280;57712;48.752;11.348;2023-07-29T01:29:19;97260.97;;;16.94;100.00
70304;BME280;57712;48.752;11.348;2023-07-29T01:31:48;97265.59;;;16.88;100.00
70304;BME280;57712;48.752;11.348;2023-07-29T01:34:26;97270.22;;;16.91;100.00
70304;BME280;57712;48.752;11.348;2023-07-29T01:36:57;97261.63;;;16.89;100.00
70304;BME280;57712;48.752;11.348;2023-07-29T01:39:29;97268.69;;;16.90;100.00
70304;BME280;57712;48.752;11.348;2023-07-29T01:42:00;97256.59;;;16.78;100.00
70304;BME280;57712;48.752;11.348;2023-07-29T01:44:27;97255.94;;;16.83;100.00
70304;BME280;57712;48.752;11.348;2023-07-29T01:46:59;97257.84;;;16.68;100.00
70304;BME280;57712;48.752;11.348;2023-07-29T01:49:25;97252.44;;;16.64;100.00
70304;BME280;57712;48.752;11.348;2023-07-29T01:51:52;97252.13;;;16.62;100.00
70304;BME280;57712;48.752;11.348;2023-07-29T01:54:19;97251.53;;;16.67;100.00
70304;BME280;57712;48.752;11.348;2023-07-29T01:56:46;97252.78;;;16.57;100.00
70304;BME280;57712;48.752;11.348;2023-07-29T01:59:13;97244.34;;;16.52;100.00
70304;BME280;57712;48.752;11.348;2023-07-29T02:01:40;97247.41;;;16.54;100.00
70304;BME280;57712;48.752;11.348;2023-07-29T02:04:07;97247.75;;;16.47;100.00
70304;BME280;57712;48.752;11.348;2023-07-29T02:06:34;97240.81;;;16.42;100.00
70304;BME280;57712;48.752;11.348;2023-07-29T02:09:01;97242.81;;;16.41;100.00
70304;BME280;57712;48.752;11.348;2023-07-29T02:11:28;97237.94;;;16.36;100.00
70304;BME280;57712;48.752;11.348;2023-07-29T02:13:55;97235.13;;;16.45;100.00
70304;BME280;57712;48.752;11.348;2023-07-29T02:16:22;97232.69;;;16.48;100.00
70304;BME280;57712;48.752;11.348;2023-07-29T02:18:51;97227.00;;;16.33;100.00
70304;BME280;57712;48.752;11.348;2023-07-29T02:21:21;97222.22;;;16.42;100.00
70304;BME280;57712;48.752;11.348;2023-07-29T02:23:48;97224.69;;;16.50;100.00
70304;BME280;57712;48.752;11.348;2023-07-29T02:26:15;97228.81;;;16.45;100.00
70304;BME280;57712;48.752;11.348;2023-07-29T02:28:42;97218.41;;;16.31;100.00
70304;BME280;57712;48.752;11.348;2023-07-29T02:31:23;97216.09;;;16.38;100.00
70304;BME280;57712;48.752;11.348;2023-07-29T02:33:51;97212.41;;;16.41;100.00
70304;BME280;57712;48.752;11.348;2023-07-29T02:36:18;97214.41;;;16.41;100.00
70304;BME280;57712;48.752;11.348;2023-07-29T02:38:45;97215.19;;;16.32;100.00
70304;BME280;57712;48.752;11.348;2023-07-29T02:41:12;97217.47;;;16.34;100.00
70304;BME280;57712;48.752;11.348;2023-07-29T02:43:39;97239.00;;;16.30;100.00
70304;BME280;57712;48.752;11.348;2023-07-29T02:46:08;97244.22;;;16.37;100.00
70304;BME280;57712;48.752;11.348;2023-07-29T02:48:35;97250.66;;;16.43;100.00
70304;BME280;57712;48.752;11.348;2023-07-29T02:51:02;97243.47;;;16.18;100.00
70304;BME280;57712;48.752;11.348;2023-07-29T02:53:28;97246.09;;;16.12;100.00
70304;BME280;57712;48.752;11.348;2023-07-29T02:55:55;97245.47;;;16.27;100.00
70304;BME280;57712;48.752;11.348;2023-07-29T02:58:25;97244.22;;;16.28;100.00
70304;BME280;57712;48.752;11.348;2023-07-29T03:00:52;97245.13;;;16.34;100.00
70304;BME280;57712;48.752;11.348;2023-07-29T03:03:19;97243.28;;;16.40;100.00
70304;BME280;57712;48.752;11.348;2023-07-29T03:05:46;97251.28;;;16.38;100.00
70304;BME280;57712;48.752;11.348;2023-07-29T03:08:13;97243.28;;;16.40;100.00
70304;BME280;57712;48.752;11.348;2023-07-29T03:10:40;97240.38;;;16.34;100.00
70304;BME280;57712;48.752;11.348;2023-07-29T03:13:06;97234.69;;;16.38;100.00
70304;BME280;57712;48.752;11.348;2023-07-29T03:15:33;97236.81;;;16.43;100.00
70304;BME280;57712;48.752;11.348;2023-07-29T03:18:01;97239.09;;;16.54;100.00
70304;BME280;57712;48.752;11.348;2023-07-29T03:20:28;97232.63;;;16.57;100.00
70304;BME280;57712;48.752;11.348;2023-07-29T03:22:55;97236.81;;;16.43;100.00
70304;BME280;57712;48.752;11.348;2023-07-29T03:25:21;97226.69;;;16.49;100.00
70304;BME280;57712;48.752;11.348;2023-07-29T03:27:48;97226.38;;;16.47;100.00
70304;BME280;57712;48.752;11.348;2023-07-29T03:30:19;97220.50;;;16.54;100.00
70304;BME280;57712;48.752;11.348;2023-07-29T03:32:46;97226.00;;;16.63;100.00
70304;BME280;57712;48.752;11.348;2023-07-29T03:35:13;97226.66;;;16.58;100.00
70304;BME280;57712;48.752;11.348;2023-07-29T03:37:40;97224.78;;;16.64;100.00
70304;BME280;57712;48.752;11.348;2023-07-29T03:40:07;97226.97;;;16.69;100.00
70304;BME280;57712;48.752;11.348;2023-07-29T03:42:36;97225.53;;;16.65;100.00
70304;BME280;57712;48.752;11.348;2023-07-29T03:45:03;97226.97;;;16.69;100.00
70304;BME280;57712;48.752;11.348;2023-07-29T03:47:30;97224.50;;;16.71;100.00
70304;BME280;57712;48.752;11.348;2023-07-29T03:49:57;97232.50;;;16.69;100.00
70304;BME280;57712;48.752;11.348;2023-07-29T03:52:23;97222.94;;;16.70;100.00
70304;BME280;57712;48.752;11.348;2023-07-29T03:54:50;97241.97;;;16.78;100.00
70304;BME280;57712;48.752;11.348;2023-07-29T03:57:17;97249.94;;;16.85;100.00
70304;BME280;57712;48.752;11.348;2023-07-29T03:59:43;97245.06;;;16.80;100.00
70304;BME280;57712;48.752;11.348;2023-07-29T04:02:10;97240.13;;;16.74;100.00
70304;BME280;57712;48.752;11.348;2023-07-29T04:04:37;97230.19;;;16.68;100.00
70304;BME280;57712;48.752;11.348;2023-07-29T04:07:05;97222.78;;;16.74;100.00
70304;BME280;57712;48.752;11.348;2023-07-29T04:09:32;97226.00;;;16.72;100.00
70304;BME280;57712;48.752;11.348;2023-07-29T04:11:59;97218.31;;;16.77;100.00
70304;BME280;57712;48.752;11.348;2023-07-29T04:14:26;97215.88;;;16.79;100.00
70304;BME280;57712;48.752;11.348;2023-07-29T04:16:53;97222.31;;;16.76;100.00
70304;BME280;57712;48.752;11.348;2023-07-29T04:19:20;97222.59;;;16.78;100.00
70304;BME280;57712;48.752;11.348;2023-07-29T04:21:47;97229.03;;;16.84;100.00
70304;BME280;57712;48.752;11.348;2023-07-29T04:24:14;97225.34;;;16.87;100.00
70304;BME280;57712;48.752;11.348;2023-07-29T04:26:40;97213.22;;;16.84;100.00
70304;BME280;57712;48.752;11.348;2023-07-29T04:29:07;97212.91;;;16.82;100.00
70304;BME280;57712;48.752;11.348;2023-07-29T04:31:34;97205.41;;;16.73;100.00
70304;BME280;57712;48.752;11.348;2023-07-29T04:34:01;97207.22;;;16.86;100.00
70304;BME280;57712;48.752;11.348;2023-07-29T04:36:28;97211.81;;;16.89;100.00
70304;BME280;57712;48.752;11.348;2023-07-29T04:38:55;97207.22;;;16.86;100.00
70304;BME280;57712;48.752;11.348;2023-07-29T04:41:21;97215.03;;;16.87;100.00
70304;BME280;57712;48.752;11.348;2023-07-29T04:43:48;97203.13;;;17.05;100.00
70304;BME280;57712;48.752;11.348;2023-07-29T04:46:16;97197.00;;;17.01;100.00
70304;BME280;57712;48.752;11.348;2023-07-29T04:48:43;97192.66;;;17.09;100.00
70304;BME280;57712;48.752;11.348;2023-07-29T04:51:09;97192.94;;;17.11;100.00
70304;BME280;57712;48.752;11.348;2023-07-29T04:53:36;97184.00;;;17.16;100.00
70304;BME280;57712;48.752;11.348;2023-07-29T04:56:04;97198.44;;;17.20;100.00
70304;BME280;57712;48.752;11.348;2023-07-29T04:58:31;97201.50;;;17.22;100.00
70304;BME280;57712;48.752;11.348;2023-07-29T05:01:02;97198.34;;;17.29;100.00
70304;BME280;57712;48.752;11.348;2023-07-29T05:03:29;97186.41;;;17.23;100.00
70304;BME280;57712;48.752;11.348;2023-07-29T05:05:57;97183.75;;;17.29;100.00
70304;BME280;57712;48.752;11.348;2023-07-29T05:08:26;97190.69;;;17.48;100.00
70304;BME280;57712;48.752;11.348;2023-07-29T05:10:54;97186.53;;;17.53;100.00
70304;BME280;57712;48.752;11.348;2023-07-29T05:13:25;97178.44;;;17.64;100.00
70304;BME280;57712;48.752;11.348;2023-07-29T05:15:52;97174.94;;;17.78;100.00
70304;BME280;57712;48.752;11.348;2023-07-29T05:18:19;97175.56;;;17.97;100.00
70304;BME280;57712;48.752;11.348;2023-07-29T05:20:47;97167.72;;;17.96;100.00
70304;BME280;57712;48.752;11.348;2023-07-29T05:23:13;97167.75;;;18.25;100.00
70304;BME280;57712;48.752;11.348;2023-07-29T05:25:40;97169.81;;;18.01;100.00
70304;BME280;57712;48.752;11.348;2023-07-29T05:28:06;97180.13;;;18.00;100.00
70304;BME280;57712;48.752;11.348;2023-07-29T05:30:33;97184.84;;;18.09;100.00
70304;BME280;57712;48.752;11.348;2023-07-29T05:33:04;97178.44;;;18.17;100.00
70304;BME280;57712;48.752;11.348;2023-07-29T05:35:31;97176.53;;;18.09;100.00
70304;BME280;57712;48.752;11.348;2023-07-29T05:37:57;97179.97;;;18.18;100.00
70304;BME280;57712;48.752;11.348;2023-07-29T05:40:24;97176.91;;;18.31;100.00
70304;BME280;57712;48.752;11.348;2023-07-29T05:42:51;97181.88;;;18.42;100.00
70304;BME280;57712;48.752;11.348;2023-07-29T05:45:17;97180.94;;;18.45;100.00
70304;BME280;57712;48.752;11.348;2023-07-29T05:47:44;97178.63;;;18.43;100.00
70304;BME280;57712;48.752;11.348;2023-07-29T05:50:11;97175.00;;;18.37;100.00
70304;BME280;57712;48.752;11.348;2023-07-29T05:52:38;97177.47;;;18.50;100.00
70304;BME280;57712;48.752;11.348;2023-07-29T05:55:05;97177.38;;;18.74;100.00
70304;BME280;57712;48.752;11.348;2023-07-29T05:57:32;97171.84;;;18.44;100.00
70304;BME280;57712;48.752;11.348;2023-07-29T05:59:59;97180.34;;;18.56;100.00
70304;BME280;57712;48.752;11.348;2023-07-29T06:02:25;97170.09;;;18.62;100.00
70304;BME280;57712;48.752;11.348;2023-07-29T06:04:52;97182.81;;;18.54;100.00
70304;BME280;57712;48.752;11.348;2023-07-29T06:07:19;97182.25;;;18.64;100.00
70304;BME280;57712;48.752;11.348;2023-07-29T06:09:46;97185.13;;;18.70;100.00
70304;BME280;57712;48.752;11.348;2023-07-29T06:12:12;97195.84;;;18.77;100.00
70304;BME280;57712;48.752;11.348;2023-07-29T06:14:39;97208.78;;;18.65;100.00
70304;BME280;57712;48.752;11.348;2023-07-29T06:17:06;97202.75;;;18.67;100.00
70304;BME280;57712;48.752;11.348;2023-07-29T06:19:33;97210.78;;;18.65;100.00
70304;BME280;57712;48.752;11.348;2023-07-29T06:22:00;97216.31;;;18.65;100.00
70304;BME280;57712;48.752;11.348;2023-07-29T06:24:28;97227.69;;;18.82;100.00
70304;BME280;57712;48.752;11.348;2023-07-29T06:26:55;97226.72;;;18.99;100.00
70304;BME280;57712;48.752;11.348;2023-07-29T06:29:21;97208.84;;;18.71;100.00
70304;BME280;57712;48.752;11.348;2023-07-29T06:31:48;97209.69;;;18.92;100.00
70304;BME280;57712;48.752;11.348;2023-07-29T06:34:15;97218.56;;;19.11;100.00
70304;BME280;57712;48.752;11.348;2023-07-29T06:36:41;97199.31;;;19.07;100.00
70304;BME280;57712;48.752;11.348;2023-07-29T06:39:08;97201.56;;;19.44;100.00
70304;BME280;57712;48.752;11.348;2023-07-29T06:41:35;97188.72;;;19.26;100.00
70304;BME280;57712;48.752;11.348;2023-07-29T06:44:01;97179.44;;;19.29;100.00
70304;BME280;57712;48.752;11.348;2023-07-29T06:46:28;97176.19;;;19.16;100.00
70304;BME280;57712;48.752;11.348;2023-07-29T06:48:55;97176.91;;;19.31;100.00
70304;BME280;57712;48.752;11.348;2023-07-29T06:51:21;97174.00;;;19.40;100.00
70304;BME280;57712;48.752;11.348;2023-07-29T06:53:48;97171.63;;;19.13;100.00
70304;BME280;57712;48.752;11.348;2023-07-29T06:56:15;97175.03;;;19.43;100.00
70304;BME280;57712;48.752;11.348;2023-07-29T06:58:41;97168.75;;;19.63;100.00
70304;BME280;57712;48.752;11.348;2023-07-29T07:01:08;97166.66;;;19.57;100.00
70304;BME280;57712;48.752;11.348;2023-07-29T07:03:35;97173.56;;;19.27;100.00
70304;BME280;57712;48.752;11.348;2023-07-29T07:06:01;97179.00;;;19.36;100.00
70304;BME280;57712;48.752;11.348;2023-07-29T07:08:29;97192.63;;;19.54;100.00
70304;BME280;57712;48.752;11.348;2023-07-29T07:10:57;97183.31;;;19.57;100.00
70304;BME280;57712;48.752;11.348;2023-07-29T07:13:24;97197.22;;;19.57;100.00
70304;BME280;57712;48.752;11.348;2023-07-29T07:15:50;97220.13;;;19.32;100.00
70304;BME280;57712;48.752;11.348;2023-07-29T07:18:20;97232.91;;;19.09;100.00
70304;BME280;57712;48.752;11.348;2023-07-29T07:20:49;97222.97;;;19.02;100.00
70304;BME280;57712;48.752;11.348;2023-07-29T07:23:17;97223.53;;;19.07;100.00
70304;BME280;57712;48.752;11.348;2023-07-29T07:25:43;97225.69;;;18.82;100.00
70304;BME280;57712;48.752;11.348;2023-07-29T07:28:12;97225.91;;;19.14;100.00
70304;BME280;57712;48.752;11.348;2023-07-29T07:30:41;97230.94;;;19.30;100.00
70304;BME280;57712;48.752;11.348;2023-07-29T07:33:09;97216.91;;;19.19;100.00
70304;BME280;57712;48.752;11.348;2023-07-29T07:35:39;97235.44;;;19.07;100.00
70304;BME280;57712;48.752;11.348;2023-07-29T07:38:05;97271.03;;;18.94;100.00
70304;BME280;57712;48.752;11.348;2023-07-29T07:40:33;97313.19;;;18.78;100.00
70304;BME280;57712;48.752;11.348;2023-07-29T07:43:00;97332.50;;;18.72;100.00
70304;BME280;57712;48.752;11.348;2023-07-29T07:45:28;97319.28;;;18.67;100.00
70304;BME280;57712;48.752;11.348;2023-07-29T07:47:55;97298.66;;;18.44;100.00
70304;BME280;57712;48.752;11.348;2023-07-29T07:50:22;97284.81;;;18.59;100.00
70304;BME280;57712;48.752;11.348;2023-07-29T07:52:50;97264.53;;;18.38;100.00
70304;BME280;57712;48.752;11.348;2023-07-29T07:55:17;97246.63;;;18.24;100.00
70304;BME280;57712;48.752;11.348;2023-07-29T07:57:44;97223.94;;;18.11;100.00
70304;BME280;57712;48.752;11.348;2023-07-29T08:00:11;97217.66;;;18.25;100.00
70304;BME280;57712;48.752;11.348;2023-07-29T08:02:37;97229.72;;;18.37;100.00
70304;BME280;57712;48.752;11.348;2023-07-29T08:05:04;97232.66;;;18.18;100.00
70304;BME280;57712;48.752;11.348;2023-07-29T08:07:31;97240.59;;;18.40;100.00
70304;BME280;57712;48.752;11.348;2023-07-29T08:09:58;97236.88;;;18.43;100.00
70304;BME280;57712;48.752;11.348;2023-07-29T08:12:24;97239.56;;;18.82;100.00
70304;BME280;57712;48.752;11.348;2023-07-29T08:14:51;97224.53;;;18.74;100.00
70304;BME280;57712;48.752;11.348;2023-07-29T08:17:18;97218.78;;;18.92;100.00
70304;BME280;57712;48.752;11.348;2023-07-29T08:19:45;97217.97;;;19.07;100.00
70304;BME280;57712;48.752;11.348;2023-07-29T08:22:11;97236.22;;;19.48;100.00
70304;BME280;57712;48.752;11.348;2023-07-29T08:24:38;97219.31;;;19.67;100.00
70304;BME280;57712;48.752;11.348;2023-07-29T08:27:05;97212.81;;;19.70;100.00
70304;BME280;57712;48.752;11.348;2023-07-29T08:29:32;97204.75;;;19.72;100.00
70304;BME280;57712;48.752;11.348;2023-07-29T08:31:58;97195.41;;;19.75;100.00
70304;BME280;57712;48.752;11.348;2023-07-29T08:34:25;97197.34;;;19.89;100.00
70304;BME280;57712;48.752;11.348;2023-07-29T08:36:52;97190.47;;;20.10;100.00
70304;BME280;57712;48.752;11.348;2023-07-29T08:39:18;97186.47;;;20.11;100.00
70304;BME280;57712;48.752;11.348;2023-07-29T08:41:57;97198.66;;;20.19;100.00
70304;BME280;57712;48.752;11.348;2023-07-29T08:44:30;97182.03;;;20.51;100.00
70304;BME280;57712;48.752;11.348;2023-07-29T08:46:59;97181.28;;;20.51;100.00
70304;BME280;57712;48.752;11.348;2023-07-29T08:49:26;97193.22;;;20.57;100.00
70304;BME280;57712;48.752;11.348;2023-07-29T08:51:53;97169.97;;;20.08;100.00
70304;BME280;57712;48.752;11.348;2023-07-29T08:54:20;97182.06;;;20.31;100.00
70304;BME280;57712;48.752;11.348;2023-07-29T08:56:47;97177.28;;;20.31;100.00
70304;BME280;57712;48.752;11.348;2023-07-29T08:59:14;97189.41;;;20.54;100.00
70304;BME280;57712;48.752;11.348;2023-07-29T09:01:43;97183.25;;;20.76;100.00
70304;BME280;57712;48.752;11.348;2023-07-29T09:04:10;97189.09;;;21.21;100.00
70304;BME280;57712;48.752;11.348;2023-07-29T09:06:37;97178.84;;;21.01;100.00
70304;BME280;57712;48.752;11.348;2023-07-29T09:09:07;97162.69;;;21.05;100.00
70304;BME280;57712;48.752;11.348;2023-07-29T09:11:35;97163.00;;;21.18;100.00
70304;BME280;57712;48.752;11.348;2023-07-29T09:14:01;97161.97;;;21.64;100.00
70304;BME280;57712;48.752;11.348;2023-07-29T09:16:28;97163.38;;;22.08;100.00
70304;BME280;57712;48.752;11.348;2023-07-29T09:19:01;97168.22;;;21.37;100.00
70304;BME280;57712;48.752;11.348;2023-07-29T09:21:28;97200.75;;;21.19;100.00
70304;BME280;57712;48.752;11.348;2023-07-29T09:23:55;97233.22;;;20.91;100.00
70304;BME280;57712;48.752;11.348;2023-07-29T09:26:26;97230.41;;;20.85;100.00
70304;BME280;57712;48.752;11.348;2023-07-29T09:28:58;97239.69;;;20.25;100.00
70304;BME280;57712;48.752;11.348;2023-07-29T09:31:26;97227.38;;;19.85;100.00
70304;BME280;57712;48.752;11.348;2023-07-29T09:34:01;97235.09;;;19.96;100.00
70304;BME280;57712;48.752;11.348;2023-07-29T09:36:33;97224.44;;;19.94;100.00
70304;BME280;57712;48.752;11.348;2023-07-29T09:39:01;97224.41;;;20.14;100.00
70304;BME280;57712;48.752;11.348;2023-07-29T09:41:29;97225.63;;;20.34;100.00
70304;BME280;57712;48.752;11.348;2023-07-29T09:43:59;97235.09;;;20.73;100.00
70304;BME280;57712;48.752;11.348;2023-07-29T09:46:39;97215.81;;;20.64;100.00
70304;BME280;57712;48.752;11.348;2023-07-29T09:49:07;97206.78;;;20.75;100.00
70304;BME280;57712;48.752;11.348;2023-07-29T09:51:38;97213.03;;;20.64;100.00
70304;BME280;57712;48.752;11.348;2023-07-29T09:54:08;97204.88;;;20.92;100.00
70304;BME280;57712;48.752;11.348;2023-07-29T09:56:39;97190.81;;;21.07;100.00
70304;BME280;57712;48.752;11.348;2023-07-29T09:59:07;97195.63;;;21.07;100.00
70304;BME280;57712;48.752;11.348;2023-07-29T10:01:34;97189.69;;;21.30;100.00
70304;BME280;57712;48.752;11.348;2023-07-29T10:04:03;97181.84;;;21.35;100.00
70304;BME280;57712;48.752;11.348;2023-07-29T10:06:32;97179.63;;;22.15;100.00
70304;BME280;57712;48.752;11.348;2023-07-29T10:09:00;97142.19;;;21.62;100.00
70304;BME280;57712;48.752;11.348;2023-07-29T10:11:27;97151.56;;;21.59;100.00
70304;BME280;57712;48.752;11.348;2023-07-29T10:13:54;97160.75;;;21.87;100.00
70304;BME280;57712;48.752;11.348;2023-07-29T10:16:36;97151.25;;;22.33;100.00
70304;BME280;57712;48.752;11.348;2023-07-29T10:19:04;97149.72;;;22.49;100.00
70304;BME280;57712;48.752;11.348;2023-07-29T10:21:31;97138.78;;;22.40;100.00
70304;BME280;57712;48.752;11.348;2023-07-29T10:24:01;97139.06;;;22.36;100.00
70304;BME280;57712;48.752;11.348;2023-07-29T10:26:31;97138.31;;;22.41;100.00
70304;BME280;57712;48.752;11.348;2023-07-29T10:28:59;97132.34;;;23.29;100.00
70304;BME280;57712;48.752;11.348;2023-07-29T10:31:32;97130.66;;;22.92;100.00
70304;BME280;57712;48.752;11.348;2023-07-29T10:33:59;97119.19;;;23.01;100.00
70304;BME280;57712;48.752;11.348;2023-07-29T10:36:27;97121.00;;;22.71;100.00
70304;BME280;57712;48.752;11.348;2023-07-29T10:38:54;97135.22;;;23.07;100.00
70304;BME280;57712;48.752;11.348;2023-07-29T10:41:21;97116.97;;;22.72;100.00
70304;BME280;57712;48.752;11.348;2023-07-29T10:43:49;97113.16;;;22.86;100.00
70304;BME280;57712;48.752;11.348;2023-07-29T10:46:17;97120.50;;;22.89;100.00
70304;BME280;57712;48.752;11.348;2023-07-29T10:56:30;97129.09;;;24.18;100.00
70304;BME280;57712;48.752;11.348;2023-07-29T11:01:54;97118.41;;;23.76;100.00
70304;BME280;57712;48.752;11.348;2023-07-29T11:12:50;97104.47;;;23.07;100.00
70304;BME280;57712;48.752;11.348;2023-07-29T11:15:25;97103.75;;;22.78;100.00
70304;BME280;57712;48.752;11.348;2023-07-29T11:18:01;97100.13;;;23.11;100.00
70304;BME280;57712;48.752;11.348;2023-07-29T11:20:33;97102.38;;;23.18;100.00
70304;BME280;57712;48.752;11.348;2023-07-29T11:23:01;97093.72;;;23.22;100.00
70304;BME280;57712;48.752;11.348;2023-07-29T11:25:30;97090.88;;;23.39;100.00
70304;BME280;57712;48.752;11.348;2023-07-29T11:27:58;97100.47;;;24.01;100.00
70304;BME280;57712;48.752;11.348;2023-07-29T11:30:28;97093.63;;;25.36;100.00
70304;BME280;57712;48.752;11.348;2023-07-29T11:32:58;97088.25;;;24.64;100.00
70304;BME280;57712;48.752;11.348;2023-07-29T11:35:25;97087.16;;;24.97;100.00
70304;BME280;57712;48.752;11.348;2023-07-29T11:37:53;97079.56;;;25.17;100.00
70304;BME280;57712;48.752;11.348;2023-07-29T11:40:21;97090.34;;;24.58;100.00
70304;BME280;57712;48.752;11.348;2023-07-29T11:42:51;97085.00;;;25.09;100.00
70304;BME280;57712;48.752;11.348;2023-07-29T11:45:21;97066.50;;;26.13;100.00
70304;BME280;57712;48.752;11.348;2023-07-29T11:47:51;97069.66;;;25.16;100.00
70304;BME280;57712;48.752;11.348;2023-07-29T11:50:17;97066.31;;;24.68;100.00
70304;BME280;57712;48.752;11.348;2023-07-29T11:52:46;97067.47;;;24.79;100.00
70304;BME280;57712;48.752;11.348;2023-07-29T11:55:14;97065.50;;;24.73;100.00
70304;BME280;57712;48.752;11.348;2023-07-29T11:57:42;97073.44;;;25.18;100.00
70304;BME280;57712;48.752;11.348;2023-07-29T12:00:10;97078.00;;;25.59;100.00
70304;BME280;57712;48.752;11.348;2023-07-29T12:02:40;97075.53;;;24.63;100.00
70304;BME280;57712;48.752;11.348;2023-07-29T12:05:09;97079.34;;;24.36;100.00
70304;BME280;57712;48.752;11.348;2023-07-29T12:07:38;97077.03;;;24.40;100.00
70304;BME280;57712;48.752;11.348;2023-07-29T12:10:06;97075.34;;;24.56;100.00
70304;BME280;57712;48.752;11.348;2023-07-29T12:12:35;97076.56;;;24.00;100.00
70304;BME280;57712;48.752;11.348;2023-07-29T12:15:04;97075.59;;;23.92;100.00
70304;BME280;57712;48.752;11.348;2023-07-29T12:17:31;97068.94;;;23.59;100.00
70304;BME280;57712;48.752;11.348;2023-07-29T12:20:08;97068.72;;;23.46;100.00
70304;BME280;57712;48.752;11.348;2023-07-29T12:22:35;97071.81;;;23.37;100.00
70304;BME280;57712;48.752;11.348;2023-07-29T12:25:03;97080.75;;;23.30;100.00
70304;BME280;57712;48.752;11.348;2023-07-29T12:27:30;97085.09;;;23.20;100.00
70304;BME280;57712;48.752;11.348;2023-07-29T12:29:57;97080.88;;;23.60;100.00
70304;BME280;57712;48.752;11.348;2023-07-29T12:32:27;97071.78;;;23.48;100.00
70304;BME280;57712;48.752;11.348;2023-07-29T12:34:55;97069.84;;;23.26;100.00
70304;BME280;57712;48.752;11.348;2023-07-29T12:37:31;97073.63;;;23.29;100.00
70304;BME280;57712;48.752;11.348;2023-07-29T12:39:58;97073.81;;;22.67;100.00
70304;BME280;57712;48.752;11.348;2023-07-29T12:42:24;97081.47;;;22.11;100.00
70304;BME280;57712;48.752;11.348;2023-07-29T12:44:51;97101.50;;;22.43;100.00
70304;BME280;57712;48.752;11.348;2023-07-29T12:47:18;97110.50;;;21.54;100.00
70304;BME280;57712;48.752;11.348;2023-07-29T12:49:44;97148.09;;;21.86;100.00
70304;BME280;57712;48.752;11.348;2023-07-29T12:52:11;97186.59;;;21.71;100.00
70304;BME280;57712;48.752;11.348;2023-07-29T12:54:38;97211.59;;;21.12;100.00
70304;BME280;57712;48.752;11.348;2023-07-29T12:57:06;97191.47;;;20.33;100.00
70304;BME280;57712;48.752;11.348;2023-07-29T12:59:33;97195.66;;;19.97;100.00
70304;BME280;57712;48.752;11.348;2023-07-29T13:01:59;97174.03;;;19.81;100.00
70304;BME280;57712;48.752;11.348;2023-07-29T13:04:27;97184.41;;;19.86;100.00